Time;durP1;ratioP1;P1;durP2;ratioP2;P2;SDS_P1;SDS_P2;PMS_P1;PMS_P2;Temp;Humidity;BMP_temperature;BMP_pressure;BME280_temperature;BME280_humidity;BME280_pressure;Samples;Min_cycle;Max_cycle;Signal;HPM_P1;HPM_P2
2022/08/18 00:03:33;;;;;;;16.23;5.78;;;;;;;;;;5035940;28;20337;-73
2022/08/18 00:05:59;;;;;;;15.55;5.57;;;;;;;;;;5048094;28;20045;-73
2022/08/18 00:08:27;;;;;;;17.50;6.03;;;;;;;;;;5049096;28;20025;-72
2022/08/18 00:10:54;;;;;;;14.38;6.00;;;;;;;;;;5045158;28;20079;-73
2022/08/18 00:13:20;;;;;;;23.52;6.93;;;;;;;;;;5044686;28;20116;-74
2022/08/18 00:15:46;;;;;;;21.33;6.97;;;;;;;;;;5045310;28;20048;-72
2022/08/18 00:18:12;;;;;;;19.90;6.35;;;;;;;;;;5056567;28;20127;-77
2022/08/18 00:20:40;;;;;;;14.27;5.85;;;;;;;;;;5041727;28;20028;-72
2022/08/18 00:23:06;;;;;;;23.90;6.20;;;;;;;;;;5046306;28;20475;-77
2022/08/18 00:25:32;;;;;;;20.27;6.03;;;;;;;;;;5048954;28;20021;-72
2022/08/18 00:27:58;;;;;;;20.13;6.70;;;;;;;;;;5027440;28;20112;-72
2022/08/18 00:30:25;;;;;;;20.23;6.35;;;;;;;;;;5054011;28;20036;-73
2022/08/18 00:32:53;;;;;;;28.70;6.70;;;;;;;;;;5034905;28;20049;-73
2022/08/18 00:35:20;;;;;;;22.00;6.53;;;;;;;;;;5050484;28;20040;-72
2022/08/18 00:37:47;;;;;;;19.33;5.90;;;;;;;;;;5063794;28;20035;-76
2022/08/18 00:40:16;;;;;;;18.38;5.47;;;;;;;;;;5031097;28;20029;-72
2022/08/18 00:42:44;;;;;;;22.70;6.68;;;;;;;;;;5053598;28;20024;-72
2022/08/18 00:45:13;;;;;;;14.20;6.28;;;;;;;;;;5052769;28;20122;-72
2022/08/18 00:47:39;;;;;;;19.52;5.65;;;;;;;;;;5033293;28;20037;-72
2022/08/18 00:50:06;;;;;;;21.55;6.35;;;;;;;;;;5052920;28;20483;-72
2022/08/18 00:52:32;;;;;;;18.35;6.78;;;;;;;;;;5041590;28;20075;-73
2022/08/18 00:54:59;;;;;;;21.15;6.55;;;;;;;;;;5055234;28;20029;-72
2022/08/18 00:57:26;;;;;;;20.60;6.50;;;;;;;;;;5046871;28;20037;-73
2022/08/18 01:00:11;;;;;;;15.05;5.85;;;;;;;;;;5065014;28;20041;-78
2022/08/18 01:02:40;;;;;;;12.38;6.38;;;;;;;;;;5051428;28;20034;-77
2022/08/18 01:05:09;;;;;;;23.55;6.00;;;;;;;;;;5051687;28;20028;-73
2022/08/18 01:07:38;;;;;;;15.85;6.47;;;;;;;;;;5073041;28;20021;-73
2022/08/18 01:10:05;;;;;;;13.38;6.47;;;;;;;;;;5062431;28;20108;-73
2022/08/18 01:12:31;;;;;;;20.00;6.47;;;;;;;;;;5059363;28;20056;-73
2022/08/18 01:14:58;;;;;;;20.58;6.40;;;;;;;;;;5052346;28;20078;-73
2022/08/18 01:22:59;;;;;;;22.35;6.47;;;;;;;;;;5045563;28;20152;-72
2022/08/18 01:28:10;;;;;;;22.17;5.55;;;;;;;;;;5042770;28;20106;-72
2022/08/18 01:30:47;;;;;;;20.55;6.50;;;;;;;;;;5045111;28;20108;-72
2022/08/18 01:33:13;;;;;;;16.75;6.57;;;;;;;;;;5042473;28;20016;-77
2022/08/18 01:35:40;;;;;;;13.30;6.15;;;;;;;;;;5029088;28;20071;-72
2022/08/18 01:38:06;;;;;;;10.13;6.10;;;;;;;;;;5067073;28;20025;-73
2022/08/18 01:40:32;;;;;;;21.23;6.13;;;;;;;;;;5071367;28;20028;-73
2022/08/18 01:43:02;;;;;;;12.27;6.32;;;;;;;;;;5044379;28;20029;-73
2022/08/18 01:45:30;;;;;;;16.77;5.82;;;;;;;;;;5058566;28;20679;-72
2022/08/18 01:47:58;;;;;;;17.70;6.10;;;;;;;;;;5033986;28;20474;-73
2022/08/18 01:50:24;;;;;;;18.63;5.72;;;;;;;;;;5061916;28;20033;-75
2022/08/18 01:52:52;;;;;;;17.45;6.47;;;;;;;;;;5064600;28;20068;-73
2022/08/18 01:55:18;;;;;;;16.45;6.65;;;;;;;;;;5034555;28;20037;-77
2022/08/18 01:57:45;;;;;;;21.55;7.38;;;;;;;;;;5057825;28;20488;-72
2022/08/18 02:00:12;;;;;;;16.20;7.63;;;;;;;;;;5067599;28;20106;-73
2022/08/18 02:02:38;;;;;;;22.73;8.10;;;;;;;;;;5060925;28;20466;-73
2022/08/18 02:05:07;;;;;;;17.00;6.85;;;;;;;;;;5044344;28;20067;-72
2022/08/18 02:07:34;;;;;;;20.80;8.70;;;;;;;;;;5053327;28;20068;-74
2022/08/18 02:10:00;;;;;;;17.52;7.80;;;;;;;;;;5056202;28;20090;-72
2022/08/18 02:12:26;;;;;;;19.15;9.82;;;;;;;;;;5049540;28;20051;-72
2022/08/18 02:14:52;;;;;;;24.00;9.80;;;;;;;;;;5061845;28;20040;-73
2022/08/18 02:17:19;;;;;;;13.35;6.95;;;;;;;;;;5068334;28;20057;-73
2022/08/18 02:19:46;;;;;;;14.77;7.68;;;;;;;;;;5042324;28;20512;-74
2022/08/18 02:22:14;;;;;;;17.02;6.97;;;;;;;;;;5053199;28;20043;-72
2022/08/18 02:24:40;;;;;;;21.33;8.40;;;;;;;;;;5059124;28;20039;-72
2022/08/18 02:27:07;;;;;;;21.27;8.85;;;;;;;;;;5060617;28;20480;-77
2022/08/18 02:29:33;;;;;;;20.25;8.88;;;;;;;;;;5036128;28;20056;-73
2022/08/18 02:31:59;;;;;;;16.58;7.35;;;;;;;;;;5058825;28;20028;-73
2022/08/18 02:34:25;;;;;;;16.75;7.45;;;;;;;;;;5051452;28;20041;-73
2022/08/18 02:36:52;;;;;;;12.98;7.35;;;;;;;;;;5059367;28;20024;-73
2022/08/18 02:39:18;;;;;;;14.50;7.13;;;;;;;;;;5065010;28;20505;-73
2022/08/18 02:41:44;;;;;;;21.73;10.05;;;;;;;;;;5046134;28;20032;-72
2022/08/18 02:44:11;;;;;;;22.05;8.60;;;;;;;;;;5048907;28;20072;-72
2022/08/18 02:46:37;;;;;;;16.08;7.97;;;;;;;;;;5044752;28;20052;-73
2022/08/18 02:49:04;;;;;;;20.10;8.93;;;;;;;;;;5051168;28;20041;-73
2022/08/18 02:51:30;;;;;;;15.60;8.05;;;;;;;;;;5047297;28;20041;-75
2022/08/18 02:53:59;;;;;;;16.50;8.00;;;;;;;;;;5033775;28;20037;-74
2022/08/18 02:56:27;;;;;;;17.40;7.40;;;;;;;;;;5065635;28;20101;-75
2022/08/18 02:58:55;;;;;;;17.45;9.75;;;;;;;;;;5054251;28;20131;-75
2022/08/18 03:01:22;;;;;;;10.55;7.15;;;;;;;;;;5057387;28;20024;-74
2022/08/18 03:03:49;;;;;;;16.70;8.07;;;;;;;;;;5070564;28;20036;-78
2022/08/18 03:06:16;;;;;;;17.73;8.25;;;;;;;;;;5064348;28;20511;-74
2022/08/18 03:08:47;;;;;;;20.77;8.05;;;;;;;;;;5052554;28;20095;-72
2022/08/18 03:11:13;;;;;;;18.20;8.43;;;;;;;;;;5046969;28;20021;-73
2022/08/18 03:13:39;;;;;;;22.17;8.93;;;;;;;;;;5038944;28;20030;-72
2022/08/18 03:16:06;;;;;;;20.35;9.20;;;;;;;;;;5049895;28;20052;-74
2022/08/18 03:18:32;;;;;;;13.43;8.93;;;;;;;;;;5060629;28;20021;-72
2022/08/18 03:21:04;;;;;;;15.77;7.85;;;;;;;;;;5052225;28;20078;-73
2022/08/18 03:23:30;;;;;;;16.80;8.25;;;;;;;;;;5049158;28;20051;-72
2022/08/18 03:25:56;;;;;;;16.73;8.02;;;;;;;;;;5030598;28;20020;-74
2022/08/18 03:28:23;;;;;;;13.98;7.30;;;;;;;;;;5048024;28;20480;-74
2022/08/18 03:30:49;;;;;;;13.05;7.88;;;;;;;;;;5072147;28;20033;-74
2022/08/18 03:33:15;;;;;;;14.63;8.30;;;;;;;;;;5044547;28;20131;-73
2022/08/18 03:35:41;;;;;;;14.27;8.38;;;;;;;;;;5058158;28;20025;-73
2022/08/18 03:38:07;;;;;;;17.38;7.55;;;;;;;;;;5064058;28;20041;-74
2022/08/18 03:40:33;;;;;;;10.82;6.80;;;;;;;;;;5057958;28;20021;-73
2022/08/18 03:43:05;;;;;;;16.17;8.32;;;;;;;;;;5041798;28;20049;-72
2022/08/18 03:45:31;;;;;;;11.82;7.82;;;;;;;;;;5028144;28;20074;-72
2022/08/18 03:47:59;;;;;;;13.65;8.07;;;;;;;;;;5063688;28;20043;-72
2022/08/18 03:50:25;;;;;;;10.98;7.28;;;;;;;;;;5061586;28;20107;-72
2022/08/18 03:52:51;;;;;;;13.10;7.75;;;;;;;;;;5050073;28;20029;-72
2022/08/18 03:55:18;;;;;;;14.48;8.25;;;;;;;;;;5044555;28;20024;-72
2022/08/18 03:57:44;;;;;;;12.40;8.65;;;;;;;;;;5066102;28;20037;-72
2022/08/18 04:00:11;;;;;;;16.70;8.88;;;;;;;;;;5047421;28;20126;-79
2022/08/18 04:02:38;;;;;;;11.32;7.72;;;;;;;;;;5060480;28;20052;-72
2022/08/18 04:05:04;;;;;;;11.98;8.38;;;;;;;;;;5048900;28;20499;-73
2022/08/18 04:07:30;;;;;;;11.13;7.40;;;;;;;;;;5035769;28;20086;-73
2022/08/18 04:09:56;;;;;;;12.38;9.60;;;;;;;;;;5062744;28;20061;-78
2022/08/18 04:12:22;;;;;;;11.30;7.97;;;;;;;;;;5032411;28;20539;-74
2022/08/18 04:14:49;;;;;;;20.15;9.00;;;;;;;;;;5067067;28;20104;-74
2022/08/18 04:17:22;;;;;;;13.65;8.57;;;;;;;;;;5060922;28;20049;-72
2022/08/18 04:19:48;;;;;;;11.18;8.70;;;;;;;;;;5040047;28;20076;-73
2022/08/18 04:22:15;;;;;;;15.18;9.00;;;;;;;;;;5037372;28;20037;-73
2022/08/18 04:24:42;;;;;;;15.68;10.18;;;;;;;;;;5058605;28;20048;-73
2022/08/18 04:27:08;;;;;;;12.27;8.38;;;;;;;;;;5048535;28;20037;-73
2022/08/18 04:29:34;;;;;;;14.77;8.50;;;;;;;;;;5042722;28;20047;-72
2022/08/18 04:32:03;;;;;;;22.15;9.27;;;;;;;;;;5041389;28;20393;-74
2022/08/18 04:34:31;;;;;;;13.85;8.35;;;;;;;;;;5036078;28;20038;-77
2022/08/18 04:36:58;;;;;;;13.32;8.82;;;;;;;;;;5058692;28;20035;-75
2022/08/18 04:39:24;;;;;;;17.58;9.68;;;;;;;;;;5065941;28;20039;-76
2022/08/18 04:41:51;;;;;;;19.42;15.38;;;;;;;;;;5043117;28;20037;-76
2022/08/18 04:44:17;;;;;;;15.05;10.93;;;;;;;;;;5050413;28;20067;-72
2022/08/18 04:46:46;;;;;;;12.23;9.73;;;;;;;;;;5044892;28;20910;-73
2022/08/18 04:49:12;;;;;;;20.05;13.43;;;;;;;;;;5043204;28;20030;-73
2022/08/18 04:51:43;;;;;;;19.27;11.30;;;;;;;;;;5054331;28;20484;-77
2022/08/18 04:54:10;;;;;;;13.13;9.23;;;;;;;;;;5046261;28;20094;-74
2022/08/18 04:56:38;;;;;;;13.93;9.98;;;;;;;;;;5050938;28;20082;-73
2022/08/18 04:59:05;;;;;;;14.80;9.70;;;;;;;;;;5046905;28;20037;-75
2022/08/18 05:01:39;;;;;;;20.02;11.30;;;;;;;;;;5049066;28;20469;-73
2022/08/18 05:04:05;;;;;;;15.55;10.50;;;;;;;;;;5033080;28;20075;-75
2022/08/18 05:06:32;;;;;;;17.58;11.05;;;;;;;;;;5039093;28;20037;-75
2022/08/18 05:09:07;;;;;;;17.55;10.60;;;;;;;;;;5030622;28;20112;-75
2022/08/18 05:11:34;;;;;;;13.05;9.80;;;;;;;;;;5037221;28;20036;-74
2022/08/18 05:14:01;;;;;;;18.25;11.00;;;;;;;;;;5052605;28;20025;-74
2022/08/18 05:16:27;;;;;;;18.83;11.27;;;;;;;;;;5042423;28;20152;-74
2022/08/18 05:18:54;;;;;;;15.20;11.15;;;;;;;;;;5046596;28;20040;-74
2022/08/18 05:21:21;;;;;;;18.80;10.35;;;;;;;;;;5056360;28;20229;-73
2022/08/18 05:23:48;;;;;;;18.27;11.23;;;;;;;;;;5046090;28;20457;-73
2022/08/18 05:26:14;;;;;;;19.88;11.02;;;;;;;;;;5061100;28;20501;-73
2022/08/18 05:28:41;;;;;;;18.17;11.45;;;;;;;;;;5039572;28;20029;-73
2022/08/18 05:31:08;;;;;;;16.33;12.07;;;;;;;;;;5049746;28;20037;-72
2022/08/18 05:33:37;;;;;;;16.75;10.77;;;;;;;;;;5039238;28;20036;-72
2022/08/18 05:36:04;;;;;;;14.57;10.95;;;;;;;;;;5043385;28;20477;-73
2022/08/18 05:38:30;;;;;;;18.33;11.52;;;;;;;;;;5066453;28;20075;-75
2022/08/18 05:41:05;;;;;;;15.63;9.70;;;;;;;;;;5057790;28;20024;-76
2022/08/18 05:43:32;;;;;;;21.38;10.82;;;;;;;;;;5060232;28;20020;-72
2022/08/18 05:45:59;;;;;;;11.82;9.43;;;;;;;;;;5048050;28;20385;-72
2022/08/18 05:48:25;;;;;;;22.50;12.23;;;;;;;;;;5058997;28;20162;-71
2022/08/18 05:50:52;;;;;;;13.07;9.95;;;;;;;;;;5061665;28;20028;-72
2022/08/18 05:53:18;;;;;;;14.00;10.02;;;;;;;;;;5058402;28;20052;-71
2022/08/18 05:58:39;;;;;;;22.83;10.95;;;;;;;;;;5038051;28;20106;-71
2022/08/18 06:01:11;;;;;;;20.92;10.43;;;;;;;;;;5052831;28;20029;-72
2022/08/18 06:03:49;;;;;;;21.50;10.10;;;;;;;;;;5038691;28;20033;-72
2022/08/18 06:06:18;;;;;;;14.43;9.18;;;;;;;;;;5044843;28;20044;-72
2022/08/18 06:08:46;;;;;;;19.70;8.60;;;;;;;;;;5056322;28;20776;-72
2022/08/18 06:11:12;;;;;;;16.08;7.97;;;;;;;;;;5052199;28;20029;-70
2022/08/18 06:13:40;;;;;;;15.00;7.88;;;;;;;;;;5035738;28;20108;-72
2022/08/18 06:16:26;;;;;;;16.30;7.30;;;;;;;;;;5060196;28;20045;-70
2022/08/18 06:19:01;;;;;;;15.60;7.55;;;;;;;;;;5009602;28;20038;-71
2022/08/18 06:21:33;;;;;;;9.43;5.85;;;;;;;;;;5048386;28;20033;-71
2022/08/18 06:24:08;;;;;;;15.57;6.78;;;;;;;;;;5048324;28;20400;-71
2022/08/18 06:26:47;;;;;;;15.68;7.00;;;;;;;;;;5051873;28;20473;-71
2022/08/18 06:29:16;;;;;;;14.85;6.32;;;;;;;;;;5039448;28;20028;-71
2022/08/18 06:31:48;;;;;;;13.27;5.65;;;;;;;;;;5052454;28;20021;-71
2022/08/18 06:34:23;;;;;;;15.77;5.78;;;;;;;;;;5051257;28;20037;-72
2022/08/18 06:36:49;;;;;;;13.38;5.65;;;;;;;;;;5047873;28;20071;-71
2022/08/18 06:39:34;;;;;;;22.00;5.97;;;;;;;;;;5032783;28;20021;-71
2022/08/18 06:42:04;;;;;;;15.75;6.43;;;;;;;;;;5052931;28;20796;-70
2022/08/18 06:44:30;;;;;;;14.70;4.82;;;;;;;;;;5029870;28;20464;-71
2022/08/18 06:47:08;;;;;;;18.63;5.45;;;;;;;;;;5048416;28;20084;-70
2022/08/18 06:49:41;;;;;;;13.40;4.45;;;;;;;;;;5047238;28;20377;-71
2022/08/18 06:52:25;;;;;;;14.23;4.45;;;;;;;;;;5048633;28;20049;-71
2022/08/18 06:54:52;;;;;;;16.95;4.35;;;;;;;;;;5035499;28;20131;-71
2022/08/18 06:57:29;;;;;;;14.10;4.38;;;;;;;;;;5070762;28;20604;-70
2022/08/18 07:00:01;;;;;;;8.70;3.28;;;;;;;;;;5043019;28;20586;-71
2022/08/18 07:02:42;;;;;;;8.40;2.67;;;;;;;;;;5032099;28;20029;-71
2022/08/18 07:05:15;;;;;;;9.18;2.88;;;;;;;;;;5051385;28;20322;-71
2022/08/18 07:07:42;;;;;;;10.63;3.35;;;;;;;;;;5049597;28;20094;-71
2022/08/18 07:10:14;;;;;;;10.65;3.05;;;;;;;;;;5045118;28;20379;-71
2022/08/18 07:12:40;;;;;;;8.00;2.35;;;;;;;;;;5038711;28;20029;-71
2022/08/18 07:15:06;;;;;;;11.73;2.85;;;;;;;;;;5031816;28;20076;-72
2022/08/18 07:17:34;;;;;;;7.43;2.30;;;;;;;;;;5042767;28;20202;-71
2022/08/18 07:20:09;;;;;;;7.10;2.05;;;;;;;;;;5043662;28;20069;-71
2022/08/18 07:22:53;;;;;;;8.82;2.75;;;;;;;;;;5050455;28;20116;-71
2022/08/18 07:25:23;;;;;;;5.10;1.90;;;;;;;;;;5048551;28;20029;-70
2022/08/18 07:27:50;;;;;;;5.13;1.65;;;;;;;;;;5046612;28;20033;-71
2022/08/18 07:30:19;;;;;;;5.85;1.60;;;;;;;;;;5051696;28;20024;-71
2022/08/18 07:32:47;;;;;;;5.32;1.80;;;;;;;;;;5030165;28;20034;-72
2022/08/18 07:35:16;;;;;;;3.90;1.58;;;;;;;;;;5044616;28;20377;-72
2022/08/18 07:37:46;;;;;;;4.13;1.67;;;;;;;;;;5049952;28;20044;-72
2022/08/18 07:40:19;;;;;;;5.78;1.50;;;;;;;;;;5047997;28;20021;-71
2022/08/18 07:42:53;;;;;;;4.15;1.67;;;;;;;;;;5064872;28;20091;-74
2022/08/18 07:45:24;;;;;;;4.57;1.52;;;;;;;;;;5047900;28;20481;-71
2022/08/18 07:47:59;;;;;;;3.30;1.30;;;;;;;;;;5040080;28;20388;-71
2022/08/18 07:50:26;;;;;;;3.85;1.00;;;;;;;;;;5049356;28;20427;-71
2022/08/18 07:53:08;;;;;;;4.13;1.10;;;;;;;;;;5069999;28;20409;-71
2022/08/18 07:55:35;;;;;;;5.03;1.48;;;;;;;;;;5047698;28;20025;-71
2022/08/18 07:58:20;;;;;;;5.03;1.15;;;;;;;;;;5050770;28;20374;-74
2022/08/18 08:00:46;;;;;;;3.88;1.13;;;;;;;;;;5056360;28;20525;-74
2022/08/18 08:03:31;;;;;;;4.68;1.35;;;;;;;;;;5061283;28;20104;-71
2022/08/18 08:06:09;;;;;;;2.53;0.88;;;;;;;;;;5042513;28;20044;-72
2022/08/18 08:08:44;;;;;;;1.48;0.77;;;;;;;;;;5035261;28;20050;-71
2022/08/18 08:11:16;;;;;;;6.93;1.00;;;;;;;;;;5047224;28;20108;-72
2022/08/18 08:13:42;;;;;;;;;;;;;;;;;;5055074;28;20029;-71
2022/08/18 08:16:08;;;;;;;7.95;1.23;;;;;;;;;;5044051;28;20399;-71
2022/08/18 08:18:34;;;;;;;3.42;0.77;;;;;;;;;;5037617;28;20036;-72
2022/08/18 08:21:29;;;;;;;2.75;0.88;;;;;;;;;;5041786;28;20040;-72
2022/08/18 08:24:08;;;;;;;4.43;0.85;;;;;;;;;;5026676;28;20124;-72
2022/08/18 08:26:57;;;;;;;6.45;1.00;;;;;;;;;;5040476;28;20024;-71
2022/08/18 08:29:23;;;;;;;3.40;1.05;;;;;;;;;;5034558;28;20029;-71
2022/08/18 08:32:03;;;;;;;7.38;1.27;;;20.90;99.90;;;;;;5063597;28;20384;-71
2022/08/18 08:34:49;;;;;;;9.20;1.50;;;;;;;;;;5035423;28;20118;-71
2022/08/18 08:37:26;;;;;;;3.90;1.20;;;;;;;;;;5051091;28;20037;-72
2022/08/18 08:39:56;;;;;;;3.58;0.90;;;;;;;;;;5062833;28;20029;-72
2022/08/18 08:42:41;;;;;;;5.38;1.30;;;;;;;;;;5046331;28;20033;-74
2022/08/18 08:45:09;;;;;;;8.23;1.45;;;;;;;;;;5064128;28;20029;-71
2022/08/18 08:47:51;;;;;;;4.78;1.38;;;;;;;;;;5053659;28;20024;-71
2022/08/18 08:50:23;;;;;;;6.47;1.23;;;21.20;99.90;;;;;;5037409;28;20043;-71
2022/08/18 08:52:49;;;;;;;5.30;1.45;;;;;;;;;;5049488;28;20061;-72
2022/08/18 08:55:28;;;;;;;2.80;1.10;;;21.70;99.90;;;;;;5052581;28;20133;-71
2022/08/18 08:58:19;;;;;;;5.65;1.67;;;22.00;99.90;;;;;;5039253;28;20029;-73
2022/08/18 09:00:47;;;;;;;6.32;1.30;;;22.10;99.90;;;;;;5038476;28;20032;-73
2022/08/18 09:03:16;;;;;;;4.93;0.80;;;22.10;99.90;;;;;;5042377;28;20474;-71
2022/08/18 09:06:00;;;;;;;2.78;0.85;;;;;;;;;;5047509;28;20040;-71
2022/08/18 09:08:38;;;;;;;3.80;1.83;;;;;;;;;;5050022;28;20044;-71
2022/08/18 09:11:12;;;;;;;6.28;1.20;;;;;;;;;;5052812;28;20020;-71
2022/08/18 09:13:54;;;;;;;5.43;1.15;;;;;;;;;;5051162;28;20055;-71
2022/08/18 09:16:44;;;;;;;3.55;1.45;;;;;;;;;;5041848;28;20069;-71
2022/08/18 09:19:29;;;;;;;4.25;1.10;;;;;;;;;;5060885;28;20028;-70
2022/08/18 09:22:00;;;;;;;4.03;1.00;;;;;;;;;;5036031;28;20039;-70
2022/08/18 09:24:27;;;;;;;3.08;0.98;;;;;;;;;;5032801;28;20024;-71
2022/08/18 09:27:02;;;;;;;2.22;1.00;;;22.70;99.90;;;;;;5049830;28;20033;-71
2022/08/18 09:29:37;;;;;;;3.90;1.08;;;22.30;99.90;;;;;;5040646;28;20117;-71
2022/08/18 09:32:18;;;;;;;8.63;1.27;;;22.30;99.90;;;;;;5047871;28;20028;-71
2022/08/18 09:34:47;;;;;;;4.25;1.02;;;;;;;;;;5049097;28;20054;-71
2022/08/18 09:37:17;;;;;;;3.30;1.60;;;;;;;;;;5056451;28;20021;-73
2022/08/18 09:43:07;;;;;;;3.20;0.70;;;;;;;;;;5044696;28;20117;-73
2022/08/18 09:45:33;;;;;;;5.68;0.98;;;;;;;;;;5052971;28;20140;-71
2022/08/18 09:48:22;;;;;;;5.30;1.15;;;22.30;99.90;;;;;;5052801;28;20441;-71
2022/08/18 09:51:19;;;;;;;4.30;1.10;;;;;;;;;;5045014;28;20030;-71
2022/08/18 09:54:12;;;;;;;2.95;1.00;;;22.30;99.90;;;;;;5041770;28;20493;-71
2022/08/18 09:56:49;;;;;;;6.10;1.45;;;;;;;;;;5031822;28;20034;-70
2022/08/18 09:59:46;;;;;;;1.63;0.60;;;;;;;;;;5045640;28;20108;-72
2022/08/18 10:02:34;;;;;;;1.38;0.55;;;;;;;;;;5031525;28;20033;-73
2022/08/18 10:05:18;;;;;;;1.80;0.73;;;22.60;99.90;;;;;;5017392;28;20207;-74
2022/08/18 10:07:53;;;;;;;2.13;0.60;;;;;;;;;;5047947;28;20028;-72
2022/08/18 10:10:40;;;;;;;2.03;0.80;;;22.80;99.90;;;;;;5047167;28;20049;-72
2022/08/18 10:13:15;;;;;;;6.63;0.95;;;;;;;;;;5040739;28;20029;-72
2022/08/18 10:15:56;;;;;;;4.13;0.90;;;22.50;99.90;;;;;;5031200;28;20444;-72
2022/08/18 10:18:33;;;;;;;1.98;0.77;;;22.80;99.90;;;;;;5045334;28;20045;-72
2022/08/18 10:20:59;;;;;;;2.95;0.82;;;;;;;;;;5044196;28;20469;-74
2022/08/18 10:23:43;;;;;;;2.53;0.82;;;;;;;;;;5048339;28;20025;-71
2022/08/18 10:26:28;;;;;;;2.85;0.85;;;;;;;;;;5050146;28;20036;-72
2022/08/18 10:28:56;;;;;;;1.80;0.95;;;;;;;;;;5051501;28;20032;-72
2022/08/18 10:31:22;;;;;;;4.18;1.15;;;;;;;;;;5028748;28;20033;-71
2022/08/18 10:34:05;;;;;;;4.18;0.60;;;23.00;99.90;;;;;;5051883;28;20050;-72
2022/08/18 10:36:37;;;;;;;5.85;0.88;;;;;;;;;;5048908;28;20040;-72
2022/08/18 10:39:04;;;;;;;;;;;23.20;99.90;;;;;;5067442;28;20040;-71
2022/08/18 10:41:31;;;;;;;2.25;0.60;;;23.20;99.90;;;;;;5049003;28;19986;-71
2022/08/18 10:44:00;;;;;;;1.52;0.70;;;23.20;99.90;;;;;;5053357;28;20056;-71
2022/08/18 10:46:28;;;;;;;1.90;0.60;;;;;;;;;;5054238;28;20040;-71
2022/08/18 10:49:02;;;;;;;3.00;0.75;;;;;;;;;;5055594;28;20469;-71
2022/08/18 10:51:37;;;;;;;3.22;0.88;;;;;;;;;;5038189;28;20500;-71
2022/08/18 10:54:07;;;;;;;2.33;0.90;;;;;;;;;;5044184;28;20036;-72
2022/08/18 10:56:48;;;;;;;3.88;0.77;;;23.80;99.90;;;;;;5034376;28;20069;-71
2022/08/18 10:59:17;;;;;;;2.25;0.82;;;;;;;;;;5048723;28;20477;-72
2022/08/18 11:01:46;;;;;;;2.92;1.55;;;;;;;;;;5056080;28;20057;-71
2022/08/18 11:04:27;;;;;;;5.00;1.13;;;23.90;99.90;;;;;;5038420;28;20462;-71
2022/08/18 11:07:21;;;;;;;2.10;0.60;;;23.90;99.90;;;;;;5027662;28;20037;-72
2022/08/18 11:09:49;;;;;;;4.32;0.80;;;;;;;;;;5038054;28;20385;-71
2022/08/18 11:12:16;;;;;;;1.48;0.70;;;;;;;;;;5040487;28;20033;-72
2022/08/18 11:14:57;;;;;;;3.10;1.00;;;25.70;99.90;;;;;;5038167;28;20083;-73
2022/08/18 11:17:53;;;;;;;4.00;1.35;;;25.30;99.90;;;;;;5061914;28;20110;-72
2022/08/18 11:20:20;;;;;;;1.90;0.73;;;;;;;;;;5058992;28;20638;-73
2022/08/18 11:22:52;;;;;;;2.50;1.08;;;;;;;;;;5053248;28;20036;-72
2022/08/18 11:25:24;;;;;;;4.20;0.80;;;25.00;99.90;;;;;;5039335;28;20095;-72
2022/08/18 11:27:50;;;;;;;1.80;0.60;;;;;;;;;;5035791;28;20036;-72
2022/08/18 11:30:17;;;;;;;3.88;0.82;;;;;;;;;;5041630;28;20025;-72
2022/08/18 11:32:43;;;;;;;2.03;0.57;;;;;;;;;;5049636;28;20025;-72
2022/08/18 11:35:09;;;;;;;2.53;0.60;;;;;;;;;;5049976;28;20030;-74
2022/08/18 11:37:46;;;;;;;0.93;0.68;;;24.50;99.90;;;;;;5046182;28;20049;-73
2022/08/18 11:40:18;;;;;;;3.97;0.85;;;;;;;;;;5041387;28;20030;-72
2022/08/18 11:42:52;;;;;;;2.80;0.80;;;;;;;;;;5047936;28;20033;-72
2022/08/18 11:45:20;;;;;;;2.30;0.47;;;;;;;;;;5047215;28;20071;-72
2022/08/18 11:48:05;;;;;;;1.52;0.60;;;;;;;;;;5049617;28;20021;-73
2022/08/18 11:50:31;;;;;;;1.58;0.68;;;;;;;;;;5030653;28;20067;-72
2022/08/18 11:53:11;;;;;;;1.08;0.52;;;;;;;;;;5045408;28;20368;-72
2022/08/18 11:55:37;;;;;;;2.25;0.95;;;;;;;;;;5050827;28;20021;-75
2022/08/18 11:58:05;;;;;;;3.30;0.90;;;;;;;;;;5042859;28;20101;-75
2022/08/18 12:00:40;;;;;;;0.77;0.70;;;;;;;;;;5032136;28;20060;-72
2022/08/18 12:03:26;;;;;;;3.47;0.70;;;;;;;;;;5050248;28;20013;-72
2022/08/18 12:06:00;;;;;;;1.38;0.50;;;;;;;;;;5034990;28;20045;-72
2022/08/18 12:08:37;;;;;;;2.30;0.80;;;;;;;;;;5056733;28;20754;-72
2022/08/18 12:11:20;;;;;;;2.03;0.80;;;;;;;;;;5054141;28;20039;-72
2022/08/18 12:13:55;;;;;;;2.10;0.60;;;25.60;99.90;;;;;;5036540;28;20029;-72
2022/08/18 12:16:37;;;;;;;3.72;0.90;;;;;;;;;;5040930;28;20084;-72
2022/08/18 12:19:03;;;;;;;1.67;0.80;;;25.50;99.90;;;;;;5038666;28;20084;-72
2022/08/18 12:21:30;;;;;;;2.08;0.75;;;;;;;;;;5058495;28;20033;-72
2022/08/18 12:23:56;;;;;;;3.25;0.93;;;;;;;;;;5047448;28;20104;-72
2022/08/18 12:26:22;;;;;;;3.70;1.02;;;;;;;;;;5047843;28;20490;-73
2022/08/18 12:28:48;;;;;;;2.05;1.10;;;;;;;;;;5048992;28;20104;-73
2022/08/18 12:31:14;;;;;;;3.97;0.80;;;;;;;;;;5048798;28;20093;-72
2022/08/18 12:33:40;;;;;;;1.42;0.80;;;;;;;;;;5045477;28;20021;-72
2022/08/18 12:36:06;;;;;;;2.78;0.65;;;;;;;;;;5031460;28;20546;-72
2022/08/18 12:38:32;;;;;;;3.95;1.00;;;;;;;;;;5049234;28;20111;-72
2022/08/18 12:40:59;;;;;;;2.35;0.90;;;;;;;;;;5065595;28;20028;-72
2022/08/18 12:43:25;;;;;;;1.08;0.68;;;;;;;;;;5043970;28;20029;-72
2022/08/18 12:45:51;;;;;;;2.95;0.90;;;;;;;;;;5050931;28;20553;-74
2022/08/18 12:48:18;;;;;;;2.33;0.82;;;;;;;;;;5042385;28;20094;-72
2022/08/18 12:50:44;;;;;;;1.05;0.70;;;;;;;;;;5041898;28;20025;-72
2022/08/18 12:53:11;;;;;;;4.22;0.90;;;;;;;;;;5053071;28;20128;-72
2022/08/18 12:55:41;;;;;;;1.25;0.60;;;25.50;99.90;;;;;;5042766;28;20065;-73
2022/08/18 12:58:07;;;;;;;1.52;0.70;;;;;;;;;;5049698;28;20041;-73
2022/08/18 13:00:34;;;;;;;3.33;0.73;;;;;;;;;;5054321;28;20099;-73
2022/08/18 13:03:00;;;;;;;4.00;0.85;;;;;;;;;;5043277;28;20036;-73
2022/08/18 13:05:27;;;;;;;3.30;0.80;;;;;;;;;;5044141;28;20033;-73
2022/08/18 13:07:53;;;;;;;3.50;1.02;;;;;;;;;;5046469;28;20033;-74
2022/08/18 13:10:19;;;;;;;1.77;0.75;;;25.60;99.90;;;;;;5036111;28;20449;-73
2022/08/18 13:12:45;;;;;;;1.70;0.95;;;;;;;;;;5033876;28;20029;-73
2022/08/18 13:15:12;;;;;;;1.88;0.88;;;;;;;;;;5057665;28;20107;-73
2022/08/18 13:17:38;;;;;;;2.35;0.73;;;;;;;;;;5051617;28;20121;-73
2022/08/18 13:20:08;;;;;;;1.60;0.80;;;;;;;;;;5047424;28;20526;-70
2022/08/18 13:22:34;;;;;;;4.32;1.80;;;;;;;;;;5051485;28;20048;-75
2022/08/18 13:25:01;;;;;;;2.17;0.93;;;25.10;99.90;;;;;;5050064;28;20025;-73
2022/08/18 13:27:27;;;;;;;2.70;0.85;;;25.10;99.90;;;;;;5037561;28;20033;-73
2022/08/18 13:29:53;;;;;;;2.15;0.85;;;24.90;99.90;;;;;;5049555;28;20052;-73
2022/08/18 13:32:20;;;;;;;2.42;0.70;;;;;;;;;;5044775;28;20029;-73
2022/08/18 13:34:46;;;;;;;2.70;0.80;;;;;;;;;;5067769;28;20045;-73
2022/08/18 13:37:13;;;;;;;2.53;1.27;;;;;;;;;;5040926;28;20048;-73
2022/08/18 13:39:39;;;;;;;1.38;1.00;;;;;;;;;;5060054;28;20036;-74
2022/08/18 13:42:06;;;;;;;2.40;1.05;;;;;;;;;;5050793;28;20044;-73
2022/08/18 13:44:31;;;;;;;3.45;1.00;;;25.40;99.90;;;;;;5036776;28;20040;-73
2022/08/18 13:46:57;;;;;;;2.13;1.10;;;;;;;;;;5047815;28;20037;-73
2022/08/18 13:49:24;;;;;;;1.55;0.77;;;;;;;;;;5049409;28;20493;-73
2022/08/18 13:51:51;;;;;;;3.30;0.90;;;;;;;;;;5050730;28;20033;-73
2022/08/18 13:54:22;;;;;;;2.50;1.00;;;25.80;99.90;;;;;;5050041;28;20033;-73
2022/08/18 13:56:48;;;;;;;1.70;0.93;;;;;;;;;;5027029;28;20047;-73
2022/08/18 13:59:15;;;;;;;1.38;0.80;;;;;;;;;;5065408;28;20559;-73
2022/08/18 14:01:41;;;;;;;1.33;0.88;;;25.20;99.90;;;;;;5056887;28;20136;-73
2022/08/18 14:04:08;;;;;;;1.75;0.80;;;25.00;99.90;;;;;;5047001;28;20025;-73
2022/08/18 14:06:34;;;;;;;0.80;0.68;;;;;;;;;;5041458;28;20477;-73
2022/08/18 14:09:00;;;;;;;3.45;1.10;;;;;;;;;;5044239;28;20112;-73
2022/08/18 14:11:30;;;;;;;1.20;0.80;;;;;;;;;;5051421;28;20561;-73
2022/08/18 14:13:56;;;;;;;1.42;0.77;;;;;;;;;;5049549;28;20102;-73
2022/08/18 14:16:23;;;;;;;3.20;0.70;;;;;;;;;;5039234;28;20045;-73
2022/08/18 14:27:05;;;;;;;3.20;1.00;;;;;;;;;;5047915;28;20048;-73
2022/08/18 14:29:30;;;;;;;2.30;0.95;;;26.30;99.90;;;;;;5051469;28;20354;-73
2022/08/18 14:31:56;;;;;;;2.47;1.00;;;;;;;;;;5044163;28;20033;-73
2022/08/18 14:34:23;;;;;;;2.30;0.80;;;;;;;;;;5048123;28;20049;-73
2022/08/18 14:36:49;;;;;;;1.58;0.82;;;;;;;;;;5048228;28;20028;-73
2022/08/18 14:39:15;;;;;;;2.80;1.20;;;;;;;;;;5059339;28;20037;-73
2022/08/18 14:41:41;;;;;;;2.75;0.85;;;;;;;;;;5049820;28;20036;-73
2022/08/18 14:44:08;;;;;;;2.67;0.90;;;;;;;;;;5053866;28;20072;-73
2022/08/18 14:46:34;;;;;;;3.92;1.08;;;;;;;;;;5050154;28;20159;-73
2022/08/18 14:49:00;;;;;;;1.67;0.88;;;;;;;;;;5041239;28;20421;-73
2022/08/18 14:51:26;;;;;;;1.67;0.77;;;;;;;;;;5028343;28;20044;-75
2022/08/18 14:53:52;;;;;;;3.08;1.05;;;;;;;;;;5058451;28;20104;-74
2022/08/18 14:56:18;;;;;;;1.48;0.80;;;25.30;99.90;;;;;;5039511;28;20683;-73
2022/08/18 14:58:44;;;;;;;1.13;0.80;;;;;;;;;;5044746;28;20133;-73
2022/08/18 15:01:12;;;;;;;1.77;1.08;;;;;;;;;;5050787;28;20040;-73
2022/08/18 15:03:38;;;;;;;2.78;0.95;;;;;;;;;;5050433;28;20117;-75